sensor_id;sensor_type;location;lat;lon;timestamp;temperature;humidity
29501;DHT22;16450;50.288;10.966;2022-12-18T00:02:16;-9.80;91.70
29501;DHT22;16450;50.288;10.966;2022-12-18T00:05:17;-9.90;91.60
29501;DHT22;16450;50.288;10.966;2022-12-18T00:08:18;-9.90;91.60
29501;DHT22;16450;50.288;10.966;2022-12-18T00:11:21;-9.90;91.60
29501;DHT22;16450;50.288;10.966;2022-12-18T00:14:22;-9.90;91.70
29501;DHT22;16450;50.288;10.966;2022-12-18T00:17:23;-9.90;92.10
29501;DHT22;16450;50.288;10.966;2022-12-18T00:20:23;-9.90;91.80
29501;DHT22;16450;50.288;10.966;2022-12-18T00:23:26;-9.90;91.80
29501;DHT22;16450;50.288;10.966;2022-12-18T00:26:29;-9.90;91.80
29501;DHT22;16450;50.288;10.966;2022-12-18T00:29:30;-9.90;91.70
29501;DHT22;16450;50.288;10.966;2022-12-18T00:32:32;-9.90;91.70
29501;DHT22;16450;50.288;10.966;2022-12-18T00:35:33;-9.90;91.60
29501;DHT22;16450;50.288;10.966;2022-12-18T00:38:34;-10.00;91.50
29501;DHT22;16450;50.288;10.966;2022-12-18T00:41:34;-10.00;91.50
29501;DHT22;16450;50.288;10.966;2022-12-18T00:44:53;-10.10;91.30
29501;DHT22;16450;50.288;10.966;2022-12-18T00:47:55;-10.10;91.20
29501;DHT22;16450;50.288;10.966;2022-12-18T00:50:56;-10.10;91.10
29501;DHT22;16450;50.288;10.966;2022-12-18T00:53:56;-10.10;91.00
29501;DHT22;16450;50.288;10.966;2022-12-18T00:56:57;-10.20;91.00
29501;DHT22;16450;50.288;10.966;2022-12-18T00:59:57;-10.20;91.10
29501;DHT22;16450;50.288;10.966;2022-12-18T01:02:58;-10.20;91.30
29501;DHT22;16450;50.288;10.966;2022-12-18T01:05:59;-10.20;91.40
29501;DHT22;16450;50.288;10.966;2022-12-18T01:08:59;-10.30;91.40
29501;DHT22;16450;50.288;10.966;2022-12-18T01:12:00;-10.30;91.40
29501;DHT22;16450;50.288;10.966;2022-12-18T01:15:01;-10.30;91.50
29501;DHT22;16450;50.288;10.966;2022-12-18T01:18:01;-10.30;91.40
29501;DHT22;16450;50.288;10.966;2022-12-18T01:21:12;-10.30;91.30
29501;DHT22;16450;50.288;10.966;2022-12-18T01:24:13;-10.30;91.30
29501;DHT22;16450;50.288;10.966;2022-12-18T01:27:13;-10.40;91.20
29501;DHT22;16450;50.288;10.966;2022-12-18T01:30:14;-10.40;91.10
29501;DHT22;16450;50.288;10.966;2022-12-18T01:33:15;-10.40;91.10
29501;DHT22;16450;50.288;10.966;2022-12-18T01:36:30;-10.40;91.20
29501;DHT22;16450;50.288;10.966;2022-12-18T01:39:32;-10.50;91.20
29501;DHT22;16450;50.288;10.966;2022-12-18T01:42:33;-10.50;91.30
29501;DHT22;16450;50.288;10.966;2022-12-18T01:45:33;-10.50;91.40
29501;DHT22;16450;50.288;10.966;2022-12-18T01:48:34;-10.50;91.40
29501;DHT22;16450;50.288;10.966;2022-12-18T01:51:35;-10.50;91.50
29501;DHT22;16450;50.288;10.966;2022-12-18T01:54:35;-10.50;91.50
29501;DHT22;16450;50.288;10.966;2022-12-18T01:57:37;-10.50;91.50
29501;DHT22;16450;50.288;10.966;2022-12-18T02:00:38;-10.50;91.60
29501;DHT22;16450;50.288;10.966;2022-12-18T02:03:42;-10.50;91.70
29501;DHT22;16450;50.288;10.966;2022-12-18T02:06:43;-10.50;91.80
29501;DHT22;16450;50.288;10.966;2022-12-18T02:09:56;-10.50;91.80
29501;DHT22;16450;50.288;10.966;2022-12-18T02:13:18;-10.50;91.90
29501;DHT22;16450;50.288;10.966;2022-12-18T02:16:37;-10.50;91.90
29501;DHT22;16450;50.288;10.966;2022-12-18T02:20:23;-10.50;92.00
29501;DHT22;16450;50.288;10.966;2022-12-18T02:23:45;-10.50;91.90
29501;DHT22;16450;50.288;10.966;2022-12-18T02:26:55;-10.50;91.90
29501;DHT22;16450;50.288;10.966;2022-12-18T02:29:59;-10.50;91.90
29501;DHT22;16450;50.288;10.966;2022-12-18T02:33:04;-10.50;91.90
29501;DHT22;16450;50.288;10.966;2022-12-18T02:36:06;-10.60;91.90
29501;DHT22;16450;50.288;10.966;2022-12-18T02:39:10;-10.50;92.00
29501;DHT22;16450;50.288;10.966;2022-12-18T02:42:12;-10.50;92.00
29501;DHT22;16450;50.288;10.966;2022-12-18T02:45:13;-10.60;91.90
29501;DHT22;16450;50.288;10.966;2022-12-18T02:48:14;-10.60;91.90
29501;DHT22;16450;50.288;10.966;2022-12-18T02:51:26;-10.60;92.00
29501;DHT22;16450;50.288;10.966;2022-12-18T02:54:41;-10.60;92.00
29501;DHT22;16450;50.288;10.966;2022-12-18T02:58:04;-10.60;92.10
29501;DHT22;16450;50.288;10.966;2022-12-18T03:01:21;-10.60;92.10
29501;DHT22;16450;50.288;10.966;2022-12-18T03:04:38;-10.60;92.10
29501;DHT22;16450;50.288;10.966;2022-12-18T03:07:56;-10.60;92.20
29501;DHT22;16450;50.288;10.966;2022-12-18T03:11:09;-10.60;92.20
29501;DHT22;16450;50.288;10.966;2022-12-18T03:14:12;-10.60;92.30
29501;DHT22;16450;50.288;10.966;2022-12-18T03:17:16;-10.60;92.30
29501;DHT22;16450;50.288;10.966;2022-12-18T03:20:20;-10.60;92.20
29501;DHT22;16450;50.288;10.966;2022-12-18T03:23:25;-10.60;92.20
29501;DHT22;16450;50.288;10.966;2022-12-18T03:26:29;-10.60;92.10
29501;DHT22;16450;50.288;10.966;2022-12-18T03:29:37;-10.60;92.10
29501;DHT22;16450;50.288;10.966;2022-12-18T03:36:01;-10.70;92.00
29501;DHT22;16450;50.288;10.966;2022-12-18T03:39:02;-10.70;92.20
29501;DHT22;16450;50.288;10.966;2022-12-18T03:42:30;-10.70;92.00
29501;DHT22;16450;50.288;10.966;2022-12-18T03:45:37;-10.70;92.00
29501;DHT22;16450;50.288;10.966;2022-12-18T03:48:43;-10.70;92.00
29501;DHT22;16450;50.288;10.966;2022-12-18T03:51:52;-10.80;92.00
29501;DHT22;16450;50.288;10.966;2022-12-18T03:54:55;-10.80;92.00
29501;DHT22;16450;50.288;10.966;2022-12-18T03:57:59;-10.80;92.00
29501;DHT22;16450;50.288;10.966;2022-12-18T04:01:04;-10.80;92.10
29501;DHT22;16450;50.288;10.966;2022-12-18T04:04:06;-10.80;92.10
29501;DHT22;16450;50.288;10.966;2022-12-18T04:07:09;-10.80;92.00
29501;DHT22;16450;50.288;10.966;2022-12-18T04:10:11;-10.90;92.00
29501;DHT22;16450;50.288;10.966;2022-12-18T04:13:28;-10.90;91.90
29501;DHT22;16450;50.288;10.966;2022-12-18T04:16:28;-10.90;91.90
29501;DHT22;16450;50.288;10.966;2022-12-18T04:19:29;-10.90;91.90
29501;DHT22;16450;50.288;10.966;2022-12-18T04:22:30;-10.90;91.90
29501;DHT22;16450;50.288;10.966;2022-12-18T04:25:30;-10.90;91.90
29501;DHT22;16450;50.288;10.966;2022-12-18T04:28:31;-10.90;91.90
29501;DHT22;16450;50.288;10.966;2022-12-18T04:31:32;-10.90;91.90
29501;DHT22;16450;50.288;10.966;2022-12-18T04:34:32;-10.90;92.00
29501;DHT22;16450;50.288;10.966;2022-12-18T04:37:33;-11.00;92.00
29501;DHT22;16450;50.288;10.966;2022-12-18T04:40:34;-11.00;92.00
29501;DHT22;16450;50.288;10.966;2022-12-18T04:43:34;-11.00;92.10
29501;DHT22;16450;50.288;10.966;2022-12-18T04:46:35;-11.00;92.10
29501;DHT22;16450;50.288;10.966;2022-12-18T04:49:36;-11.00;92.10
29501;DHT22;16450;50.288;10.966;2022-12-18T04:52:36;-11.00;92.00
29501;DHT22;16450;50.288;10.966;2022-12-18T04:55:37;-11.00;91.90
29501;DHT22;16450;50.288;10.966;2022-12-18T04:58:39;-11.00;91.90
29501;DHT22;16450;50.288;10.966;2022-12-18T05:01:40;-11.00;91.80
29501;DHT22;16450;50.288;10.966;2022-12-18T05:04:40;-11.10;91.70
29501;DHT22;16450;50.288;10.966;2022-12-18T05:07:41;-11.10;91.60
29501;DHT22;16450;50.288;10.966;2022-12-18T05:10:41;-11.10;91.60
29501;DHT22;16450;50.288;10.966;2022-12-18T05:13:45;-11.10;91.90
29501;DHT22;16450;50.288;10.966;2022-12-18T05:16:46;-11.20;91.80
29501;DHT22;16450;50.288;10.966;2022-12-18T05:19:46;-11.20;91.60
29501;DHT22;16450;50.288;10.966;2022-12-18T05:22:47;-11.20;91.60
29501;DHT22;16450;50.288;10.966;2022-12-18T05:28:52;-11.20;91.60
29501;DHT22;16450;50.288;10.966;2022-12-18T05:31:53;-11.20;91.60
29501;DHT22;16450;50.288;10.966;2022-12-18T05:34:54;-11.30;91.80
29501;DHT22;16450;50.288;10.966;2022-12-18T05:37:54;-11.30;91.60
29501;DHT22;16450;50.288;10.966;2022-12-18T05:40:55;-11.20;91.70
29501;DHT22;16450;50.288;10.966;2022-12-18T05:43:56;-11.30;91.70
29501;DHT22;16450;50.288;10.966;2022-12-18T05:46:57;-11.30;91.70
29501;DHT22;16450;50.288;10.966;2022-12-18T05:49:57;-11.30;91.70
29501;DHT22;16450;50.288;10.966;2022-12-18T05:52:58;-11.40;91.70
29501;DHT22;16450;50.288;10.966;2022-12-18T05:56:03;-11.40;91.70
29501;DHT22;16450;50.288;10.966;2022-12-18T05:59:04;-11.40;91.60
29501;DHT22;16450;50.288;10.966;2022-12-18T06:02:05;-11.40;91.60
29501;DHT22;16450;50.288;10.966;2022-12-18T06:05:06;-11.40;91.60
29501;DHT22;16450;50.288;10.966;2022-12-18T06:08:07;-11.40;91.60
29501;DHT22;16450;50.288;10.966;2022-12-18T06:11:08;-11.40;91.50
29501;DHT22;16450;50.288;10.966;2022-12-18T06:14:09;-11.50;91.70
29501;DHT22;16450;50.288;10.966;2022-12-18T06:17:10;-11.50;91.40
29501;DHT22;16450;50.288;10.966;2022-12-18T06:20:10;-11.50;91.40
29501;DHT22;16450;50.288;10.966;2022-12-18T06:23:11;-11.50;91.40
29501;DHT22;16450;50.288;10.966;2022-12-18T06:26:12;-11.50;91.50
29501;DHT22;16450;50.288;10.966;2022-12-18T06:29:13;-11.50;91.50
29501;DHT22;16450;50.288;10.966;2022-12-18T06:32:14;-11.50;91.50
29501;DHT22;16450;50.288;10.966;2022-12-18T06:35:15;-11.60;91.60
29501;DHT22;16450;50.288;10.966;2022-12-18T06:38:15;-11.60;91.60
29501;DHT22;16450;50.288;10.966;2022-12-18T06:41:18;-11.60;91.60
29501;DHT22;16450;50.288;10.966;2022-12-18T06:44:19;-11.60;91.70
29501;DHT22;16450;50.288;10.966;2022-12-18T06:47:19;-11.60;91.70
29501;DHT22;16450;50.288;10.966;2022-12-18T06:50:20;-11.60;91.70
29501;DHT22;16450;50.288;10.966;2022-12-18T06:53:21;-11.60;91.70
29501;DHT22;16450;50.288;10.966;2022-12-18T06:56:22;-11.60;91.70
29501;DHT22;16450;50.288;10.966;2022-12-18T06:59:22;-11.60;91.70
29501;DHT22;16450;50.288;10.966;2022-12-18T07:02:23;-11.60;91.70
29501;DHT22;16450;50.288;10.966;2022-12-18T07:05:23;-11.70;91.70
29501;DHT22;16450;50.288;10.966;2022-12-18T07:08:24;-11.70;91.70
29501;DHT22;16450;50.288;10.966;2022-12-18T07:11:25;-11.60;91.70
29501;DHT22;16450;50.288;10.966;2022-12-18T07:14:26;-11.70;91.60
29501;DHT22;16450;50.288;10.966;2022-12-18T07:17:26;-11.70;91.60
29501;DHT22;16450;50.288;10.966;2022-12-18T07:20:27;-11.70;91.60
29501;DHT22;16450;50.288;10.966;2022-12-18T07:23:27;-11.70;91.50
29501;DHT22;16450;50.288;10.966;2022-12-18T07:26:28;-11.70;91.40
29501;DHT22;16450;50.288;10.966;2022-12-18T07:29:29;-11.70;91.40
29501;DHT22;16450;50.288;10.966;2022-12-18T07:32:30;-11.70;91.40
29501;DHT22;16450;50.288;10.966;2022-12-18T07:35:32;-11.80;91.30
29501;DHT22;16450;50.288;10.966;2022-12-18T07:38:33;-11.80;91.40
29501;DHT22;16450;50.288;10.966;2022-12-18T07:41:35;-11.80;91.40
29501;DHT22;16450;50.288;10.966;2022-12-18T07:44:37;-11.80;91.40
29501;DHT22;16450;50.288;10.966;2022-12-18T07:47:37;-11.80;91.40
29501;DHT22;16450;50.288;10.966;2022-12-18T07:50:38;-11.80;91.40
29501;DHT22;16450;50.288;10.966;2022-12-18T07:53:39;-11.80;91.50
29501;DHT22;16450;50.288;10.966;2022-12-18T07:56:40;-11.80;91.60
29501;DHT22;16450;50.288;10.966;2022-12-18T07:59:41;-11.70;91.60
29501;DHT22;16450;50.288;10.966;2022-12-18T08:02:41;-11.80;91.70
29501;DHT22;16450;50.288;10.966;2022-12-18T08:05:42;-11.80;91.70
29501;DHT22;16450;50.288;10.966;2022-12-18T08:08:42;-11.80;91.90
29501;DHT22;16450;50.288;10.966;2022-12-18T08:11:43;-11.70;92.00
29501;DHT22;16450;50.288;10.966;2022-12-18T08:14:44;-11.70;92.20
29501;DHT22;16450;50.288;10.966;2022-12-18T08:17:44;-11.60;92.40
29501;DHT22;16450;50.288;10.966;2022-12-18T08:20:45;-11.60;92.50
29501;DHT22;16450;50.288;10.966;2022-12-18T08:23:45;-11.50;92.70
29501;DHT22;16450;50.288;10.966;2022-12-18T08:26:46;-11.50;92.90
29501;DHT22;16450;50.288;10.966;2022-12-18T08:29:47;-11.40;93.00
29501;DHT22;16450;50.288;10.966;2022-12-18T08:32:51;-11.30;93.20
29501;DHT22;16450;50.288;10.966;2022-12-18T08:35:53;-11.20;93.40
29501;DHT22;16450;50.288;10.966;2022-12-18T08:38:54;-11.20;93.50
29501;DHT22;16450;50.288;10.966;2022-12-18T08:41:54;-11.10;93.70
29501;DHT22;16450;50.288;10.966;2022-12-18T08:45:14;-11.00;93.90
29501;DHT22;16450;50.288;10.966;2022-12-18T08:48:14;-10.90;94.00
29501;DHT22;16450;50.288;10.966;2022-12-18T08:51:16;-10.80;94.50
29501;DHT22;16450;50.288;10.966;2022-12-18T08:54:17;-10.70;94.40
29501;DHT22;16450;50.288;10.966;2022-12-18T08:57:18;-10.60;94.60
29501;DHT22;16450;50.288;10.966;2022-12-18T09:00:18;-10.50;94.70
29501;DHT22;16450;50.288;10.966;2022-12-18T09:03:19;-10.40;94.90
29501;DHT22;16450;50.288;10.966;2022-12-18T09:06:21;-10.30;95.00
29501;DHT22;16450;50.288;10.966;2022-12-18T09:09:22;-10.20;95.00
29501;DHT22;16450;50.288;10.966;2022-12-18T09:12:22;-10.10;95.10
29501;DHT22;16450;50.288;10.966;2022-12-18T09:15:23;-9.90;95.20
29501;DHT22;16450;50.288;10.966;2022-12-18T09:18:24;-9.90;95.30
29501;DHT22;16450;50.288;10.966;2022-12-18T09:21:27;-9.70;95.40
29501;DHT22;16450;50.288;10.966;2022-12-18T09:24:28;-9.50;95.50
29501;DHT22;16450;50.288;10.966;2022-12-18T09:27:28;-9.20;95.70
29501;DHT22;16450;50.288;10.966;2022-12-18T09:30:29;-9.00;95.90
29501;DHT22;16450;50.288;10.966;2022-12-18T09:33:30;-8.60;96.00
29501;DHT22;16450;50.288;10.966;2022-12-18T09:36:30;-8.30;96.10
29501;DHT22;16450;50.288;10.966;2022-12-18T09:39:31;-8.00;96.20
29501;DHT22;16450;50.288;10.966;2022-12-18T09:42:31;-7.70;96.10
29501;DHT22;16450;50.288;10.966;2022-12-18T09:45:44;-7.40;96.00
29501;DHT22;16450;50.288;10.966;2022-12-18T09:48:49;-7.10;95.70
29501;DHT22;16450;50.288;10.966;2022-12-18T09:52:03;-6.80;95.60
29501;DHT22;16450;50.288;10.966;2022-12-18T09:55:21;-6.60;95.30
29501;DHT22;16450;50.288;10.966;2022-12-18T09:58:52;-6.40;95.20
29501;DHT22;16450;50.288;10.966;2022-12-18T10:01:56;-6.20;94.50
29501;DHT22;16450;50.288;10.966;2022-12-18T10:05:04;-6.00;94.40
29501;DHT22;16450;50.288;10.966;2022-12-18T10:08:13;-5.90;94.20
29501;DHT22;16450;50.288;10.966;2022-12-18T10:14:51;-5.70;93.90
29501;DHT22;16450;50.288;10.966;2022-12-18T10:21:10;-5.60;93.90
29501;DHT22;16450;50.288;10.966;2022-12-18T10:24:26;-5.50;93.90
29501;DHT22;16450;50.288;10.966;2022-12-18T10:27:31;-5.40;94.00
29501;DHT22;16450;50.288;10.966;2022-12-18T10:30:32;-5.40;94.20
29501;DHT22;16450;50.288;10.966;2022-12-18T10:33:33;-5.30;94.40
29501;DHT22;16450;50.288;10.966;2022-12-18T10:36:34;-5.30;94.80
29501;DHT22;16450;50.288;10.966;2022-12-18T10:39:35;-5.30;94.50
29501;DHT22;16450;50.288;10.966;2022-12-18T10:42:35;-5.30;94.50
29501;DHT22;16450;50.288;10.966;2022-12-18T10:45:36;-5.30;94.60
29501;DHT22;16450;50.288;10.966;2022-12-18T10:48:56;-5.30;94.70
29501;DHT22;16450;50.288;10.966;2022-12-18T10:52:15;-5.20;94.30
29501;DHT22;16450;50.288;10.966;2022-12-18T10:55:17;-5.30;94.30
29501;DHT22;16450;50.288;10.966;2022-12-18T10:58:31;-5.20;94.90
29501;DHT22;16450;50.288;10.966;2022-12-18T11:01:54;-5.20;94.80
29501;DHT22;16450;50.288;10.966;2022-12-18T11:04:55;-5.20;94.90
29501;DHT22;16450;50.288;10.966;2022-12-18T11:07:57;-5.20;95.20
29501;DHT22;16450;50.288;10.966;2022-12-18T11:10:58;-5.30;95.10
29501;DHT22;16450;50.288;10.966;2022-12-18T11:14:25;-5.20;95.30
29501;DHT22;16450;50.288;10.966;2022-12-18T11:20:31;-5.20;95.40
29501;DHT22;16450;50.288;10.966;2022-12-18T11:23:33;-5.20;95.50
29501;DHT22;16450;50.288;10.966;2022-12-18T11:26:35;-5.20;95.50
29501;DHT22;16450;50.288;10.966;2022-12-18T11:29:38;-5.20;95.50
29501;DHT22;16450;50.288;10.966;2022-12-18T11:32:41;-5.20;95.60
29501;DHT22;16450;50.288;10.966;2022-12-18T11:35:59;-5.10;95.70
29501;DHT22;16450;50.288;10.966;2022-12-18T11:39:30;-5.10;95.60
29501;DHT22;16450;50.288;10.966;2022-12-18T11:46:16;-5.00;95.70
29501;DHT22;16450;50.288;10.966;2022-12-18T11:49:25;-5.00;95.60
29501;DHT22;16450;50.288;10.966;2022-12-18T11:52:39;-4.80;95.80
29501;DHT22;16450;50.288;10.966;2022-12-18T11:56:16;-4.90;95.50
29501;DHT22;16450;50.288;10.966;2022-12-18T12:09:46;-4.90;95.90
29501;DHT22;16450;50.288;10.966;2022-12-18T12:23:01;-4.70;96.10
29501;DHT22;16450;50.288;10.966;2022-12-18T12:26:09;-4.70;95.70
29501;DHT22;16450;50.288;10.966;2022-12-18T12:38:42;-4.60;95.90
29501;DHT22;16450;50.288;10.966;2022-12-18T12:41:45;-4.60;95.80
29501;DHT22;16450;50.288;10.966;2022-12-18T12:45:06;-4.60;96.00
29501;DHT22;16450;50.288;10.966;2022-12-18T12:48:27;-4.60;95.90
29501;DHT22;16450;50.288;10.966;2022-12-18T12:51:36;-4.60;95.80
29501;DHT22;16450;50.288;10.966;2022-12-18T12:54:37;-4.50;95.90
29501;DHT22;16450;50.288;10.966;2022-12-18T12:58:07;-4.50;96.10
29501;DHT22;16450;50.288;10.966;2022-12-18T13:01:24;-4.50;95.90
29501;DHT22;16450;50.288;10.966;2022-12-18T13:04:49;-4.40;96.00
29501;DHT22;16450;50.288;10.966;2022-12-18T13:07:54;-4.40;95.80
29501;DHT22;16450;50.288;10.966;2022-12-18T13:10:58;-4.40;96.00
29501;DHT22;16450;50.288;10.966;2022-12-18T13:14:23;-4.30;96.10
29501;DHT22;16450;50.288;10.966;2022-12-18T13:17:29;-4.40;96.00
29501;DHT22;16450;50.288;10.966;2022-12-18T13:23:56;-4.30;95.80
29501;DHT22;16450;50.288;10.966;2022-12-18T13:26:57;-4.30;96.10
29501;DHT22;16450;50.288;10.966;2022-12-18T13:29:58;-4.30;96.20
29501;DHT22;16450;50.288;10.966;2022-12-18T13:36:33;-4.30;95.80
29501;DHT22;16450;50.288;10.966;2022-12-18T13:39:34;-4.30;95.80
29501;DHT22;16450;50.288;10.966;2022-12-18T13:42:38;-4.30;96.10
29501;DHT22;16450;50.288;10.966;2022-12-18T13:52:19;-4.30;95.80
29501;DHT22;16450;50.288;10.966;2022-12-18T13:55:22;-4.30;95.80
29501;DHT22;16450;50.288;10.966;2022-12-18T13:58:22;-4.30;96.00
29501;DHT22;16450;50.288;10.966;2022-12-18T14:01:24;-4.30;96.10
29501;DHT22;16450;50.288;10.966;2022-12-18T14:04:27;-4.30;96.10
29501;DHT22;16450;50.288;10.966;2022-12-18T14:07:29;-4.30;96.00
29501;DHT22;16450;50.288;10.966;2022-12-18T14:10:31;-4.30;96.10
29501;DHT22;16450;50.288;10.966;2022-12-18T14:13:35;-4.30;96.20
29501;DHT22;16450;50.288;10.966;2022-12-18T14:16:37;-4.30;96.10
29501;DHT22;16450;50.288;10.966;2022-12-18T14:19:42;-4.30;96.20
29501;DHT22;16450;50.288;10.966;2022-12-18T14:22:45;-4.20;96.00
29501;DHT22;16450;50.288;10.966;2022-12-18T14:25:46;-4.20;96.10
29501;DHT22;16450;50.288;10.966;2022-12-18T14:28:48;-4.30;96.10
29501;DHT22;16450;50.288;10.966;2022-12-18T14:32:24;-4.30;96.40
29501;DHT22;16450;50.288;10.966;2022-12-18T14:35:25;-4.30;95.70
29501;DHT22;16450;50.288;10.966;2022-12-18T14:38:35;-4.30;96.10
29501;DHT22;16450;50.288;10.966;2022-12-18T14:41:36;-4.30;95.90
29501;DHT22;16450;50.288;10.966;2022-12-18T14:44:36;-4.30;96.00
29501;DHT22;16450;50.288;10.966;2022-12-18T14:47:37;-4.30;95.90
29501;DHT22;16450;50.288;10.966;2022-12-18T14:50:38;-4.40;95.80
29501;DHT22;16450;50.288;10.966;2022-12-18T14:53:47;-4.40;95.80
29501;DHT22;16450;50.288;10.966;2022-12-18T15:00:18;-4.40;95.80
29501;DHT22;16450;50.288;10.966;2022-12-18T15:03:20;-4.40;95.70
29501;DHT22;16450;50.288;10.966;2022-12-18T15:06:35;-4.50;95.70
29501;DHT22;16450;50.288;10.966;2022-12-18T15:09:37;-4.50;95.60
29501;DHT22;16450;50.288;10.966;2022-12-18T15:12:44;-4.50;95.70
29501;DHT22;16450;50.288;10.966;2022-12-18T15:15:46;-4.50;95.60
29501;DHT22;16450;50.288;10.966;2022-12-18T15:18:47;-4.50;95.70
29501;DHT22;16450;50.288;10.966;2022-12-18T15:21:48;-4.50;95.70
29501;DHT22;16450;50.288;10.966;2022-12-18T15:24:49;-4.60;95.70
29501;DHT22;16450;50.288;10.966;2022-12-18T15:27:50;-4.60;95.70
29501;DHT22;16450;50.288;10.966;2022-12-18T15:31:02;-4.60;95.70
29501;DHT22;16450;50.288;10.966;2022-12-18T15:34:18;-4.60;95.50
29501;DHT22;16450;50.288;10.966;2022-12-18T15:37:20;-4.60;95.50
29501;DHT22;16450;50.288;10.966;2022-12-18T15:40:22;-4.70;95.70
29501;DHT22;16450;50.288;10.966;2022-12-18T15:43:24;-4.70;95.70
29501;DHT22;16450;50.288;10.966;2022-12-18T15:46:34;-4.70;95.70
29501;DHT22;16450;50.288;10.966;2022-12-18T15:49:35;-4.70;95.70
29501;DHT22;16450;50.288;10.966;2022-12-18T15:52:44;-4.70;95.70
29501;DHT22;16450;50.288;10.966;2022-12-18T15:55:44;-4.70;95.60
29501;DHT22;16450;50.288;10.966;2022-12-18T15:59:12;-4.70;95.80
29501;DHT22;16450;50.288;10.966;2022-12-18T16:02:16;-4.70;95.70
29501;DHT22;16450;50.288;10.966;2022-12-18T16:05:19;-4.70;95.70
29501;DHT22;16450;50.288;10.966;2022-12-18T16:08:20;-4.80;95.70
29501;DHT22;16450;50.288;10.966;2022-12-18T16:11:26;-4.80;95.80
29501;DHT22;16450;50.288;10.966;2022-12-18T16:14:40;-4.80;95.70
29501;DHT22;16450;50.288;10.966;2022-12-18T16:17:41;-4.80;95.90
29501;DHT22;16450;50.288;10.966;2022-12-18T16:20:42;-4.80;95.90
29501;DHT22;16450;50.288;10.966;2022-12-18T16:23:43;-4.80;95.90
29501;DHT22;16450;50.288;10.966;2022-12-18T16:26:44;-4.80;95.90
29501;DHT22;16450;50.288;10.966;2022-12-18T16:29:44;-4.80;95.80
29501;DHT22;16450;50.288;10.966;2022-12-18T16:32:45;-4.80;95.80
29501;DHT22;16450;50.288;10.966;2022-12-18T16:35:51;-4.80;95.80
29501;DHT22;16450;50.288;10.966;2022-12-18T16:38:52;-4.80;95.70
29501;DHT22;16450;50.288;10.966;2022-12-18T16:41:53;-4.80;95.90
29501;DHT22;16450;50.288;10.966;2022-12-18T16:44:54;-4.80;95.80
29501;DHT22;16450;50.288;10.966;2022-12-18T16:47:54;-4.80;95.90
29501;DHT22;16450;50.288;10.966;2022-12-18T16:51:03;-4.80;95.90
29501;DHT22;16450;50.288;10.966;2022-12-18T16:54:04;-4.80;95.70
29501;DHT22;16450;50.288;10.966;2022-12-18T16:57:05;-4.80;95.90
29501;DHT22;16450;50.288;10.966;2022-12-18T17:00:06;-4.80;95.90
29501;DHT22;16450;50.288;10.966;2022-12-18T17:03:07;-4.70;95.90
29501;DHT22;16450;50.288;10.966;2022-12-18T17:06:07;-4.70;95.90
29501;DHT22;16450;50.288;10.966;2022-12-18T17:09:12;-4.80;95.90
29501;DHT22;16450;50.288;10.966;2022-12-18T17:12:14;-4.80;95.90
29501;DHT22;16450;50.288;10.966;2022-12-18T17:15:15;-4.70;96.00
29501;DHT22;16450;50.288;10.966;2022-12-18T17:18:15;-4.70;96.00
29501;DHT22;16450;50.288;10.966;2022-12-18T17:21:16;-4.70;96.10
29501;DHT22;16450;50.288;10.966;2022-12-18T17:24:18;-4.70;96.10
29501;DHT22;16450;50.288;10.966;2022-12-18T17:27:18;-4.70;96.10
29501;DHT22;16450;50.288;10.966;2022-12-18T17:30:19;-4.70;96.20
29501;DHT22;16450;50.288;10.966;2022-12-18T17:33:21;-4.70;96.20
29501;DHT22;16450;50.288;10.966;2022-12-18T17:36:22;-4.70;96.10
29501;DHT22;16450;50.288;10.966;2022-12-18T17:39:23;-4.70;96.20
29501;DHT22;16450;50.288;10.966;2022-12-18T17:42:24;-4.70;96.20
29501;DHT22;16450;50.288;10.966;2022-12-18T17:45:25;-4.70;96.20
29501;DHT22;16450;50.288;10.966;2022-12-18T17:48:26;-4.60;96.20
29501;DHT22;16450;50.288;10.966;2022-12-18T17:51:27;-4.60;96.20
29501;DHT22;16450;50.288;10.966;2022-12-18T17:54:28;-4.60;96.20
29501;DHT22;16450;50.288;10.966;2022-12-18T17:57:29;-4.60;96.20
29501;DHT22;16450;50.288;10.966;2022-12-18T18:00:29;-4.60;96.20
29501;DHT22;16450;50.288;10.966;2022-12-18T18:03:31;-4.60;96.20
29501;DHT22;16450;50.288;10.966;2022-12-18T18:06:32;-4.60;96.20
29501;DHT22;16450;50.288;10.966;2022-12-18T18:09:33;-4.60;96.20
29501;DHT22;16450;50.288;10.966;2022-12-18T18:12:35;-4.60;96.20
29501;DHT22;16450;50.288;10.966;2022-12-18T18:15:57;-4.60;96.20
29501;DHT22;16450;50.288;10.966;2022-12-18T18:18:59;-4.60;96.10
29501;DHT22;16450;50.288;10.966;2022-12-18T18:22:00;-4.60;96.20
29501;DHT22;16450;50.288;10.966;2022-12-18T18:25:01;-4.60;96.30
29501;DHT22;16450;50.288;10.966;2022-12-18T18:28:03;-4.60;96.30
29501;DHT22;16450;50.288;10.966;2022-12-18T18:31:10;-4.60;96.30
29501;DHT22;16450;50.288;10.966;2022-12-18T18:34:16;-4.60;96.10
29501;DHT22;16450;50.288;10.966;2022-12-18T18:37:17;-4.50;96.20
29501;DHT22;16450;50.288;10.966;2022-12-18T18:40:18;-4.50;96.30
29501;DHT22;16450;50.288;10.966;2022-12-18T18:43:20;-4.50;96.30
29501;DHT22;16450;50.288;10.966;2022-12-18T18:46:21;-4.50;96.30
29501;DHT22;16450;50.288;10.966;2022-12-18T18:49:23;-4.50;96.20
29501;DHT22;16450;50.288;10.966;2022-12-18T18:52:26;-4.50;96.20
29501;DHT22;16450;50.288;10.966;2022-12-18T18:55:27;-4.50;96.20
29501;DHT22;16450;50.288;10.966;2022-12-18T18:58:28;-4.50;96.20
29501;DHT22;16450;50.288;10.966;2022-12-18T19:01:29;-4.50;96.10
29501;DHT22;16450;50.288;10.966;2022-12-18T19:04:29;-4.50;96.10
29501;DHT22;16450;50.288;10.966;2022-12-18T19:07:30;-4.50;96.10
29501;DHT22;16450;50.288;10.966;2022-12-18T19:10:31;-4.50;96.00
29501;DHT22;16450;50.288;10.966;2022-12-18T19:13:32;-4.50;96.00
29501;DHT22;16450;50.288;10.966;2022-12-18T19:16:34;-4.50;95.90
29501;DHT22;16450;50.288;10.966;2022-12-18T19:19:34;-4.60;95.90
29501;DHT22;16450;50.288;10.966;2022-12-18T19:22:35;-4.60;95.90
29501;DHT22;16450;50.288;10.966;2022-12-18T19:25:36;-4.60;95.90
29501;DHT22;16450;50.288;10.966;2022-12-18T19:28:38;-4.60;95.90
29501;DHT22;16450;50.288;10.966;2022-12-18T19:31:38;-4.60;96.00
29501;DHT22;16450;50.288;10.966;2022-12-18T19:34:39;-4.60;95.90
29501;DHT22;16450;50.288;10.966;2022-12-18T19:37:40;-4.60;95.90
29501;DHT22;16450;50.288;10.966;2022-12-18T19:40:41;-4.60;95.80
29501;DHT22;16450;50.288;10.966;2022-12-18T19:43:42;-4.60;95.80
29501;DHT22;16450;50.288;10.966;2022-12-18T19:46:44;-4.60;95.80
29501;DHT22;16450;50.288;10.966;2022-12-18T19:49:47;-4.60;95.80
29501;DHT22;16450;50.288;10.966;2022-12-18T19:52:48;-4.60;95.90
29501;DHT22;16450;50.288;10.966;2022-12-18T19:55:49;-4.60;95.80
29501;DHT22;16450;50.288;10.966;2022-12-18T19:58:51;-4.60;95.90
29501;DHT22;16450;50.288;10.966;2022-12-18T20:01:51;-4.60;95.90
29501;DHT22;16450;50.288;10.966;2022-12-18T20:04:53;-4.60;96.00